createdAt,value
2022-10-18T00:01:50.772Z,102042.59
2022-10-18T00:05:13.802Z,102046.28
2022-10-18T00:08:45.546Z,102034.81
2022-10-18T00:11:55.397Z,102036.22
2022-10-18T00:14:58.528Z,102030.28
2022-10-18T00:18:09.255Z,102035.19
2022-10-18T00:21:26.977Z,102029.72
2022-10-18T00:24:33.289Z,102025.63
2022-10-18T00:27:36.332Z,102021.78
2022-10-18T00:30:41.223Z,102021.63
2022-10-18T00:34:03.999Z,102026.97
2022-10-18T00:37:18.540Z,102022.28
2022-10-18T00:40:40.721Z,102023.25
2022-10-18T00:44:10.623Z,102018.69
2022-10-18T00:47:33.746Z,102023.75
2022-10-18T00:50:55.775Z,102013.50
2022-10-18T00:54:11.772Z,102013.25
2022-10-18T00:57:33.661Z,102009.66
2022-10-18T01:01:03.768Z,102008.81
2022-10-18T01:04:27.630Z,102012.25
2022-10-18T01:07:50.765Z,102012.00
2022-10-18T01:11:36.858Z,102000.59
2022-10-18T01:15:18.494Z,102002.16
2022-10-18T01:18:41.059Z,101993.91
2022-10-18T01:22:14.230Z,101993.91
2022-10-18T01:25:49.538Z,101986.09
2022-10-18T01:29:30.446Z,101981.25
2022-10-18T01:33:00.608Z,101988.53
2022-10-18T01:36:29.977Z,101988.16
2022-10-18T01:39:46.755Z,101975.69
2022-10-18T01:43:02.890Z,101968.13
2022-10-18T01:46:25.675Z,101963.44
2022-10-18T01:49:45.634Z,101967.22
2022-10-18T01:53:08.634Z,101963.38
2022-10-18T01:56:32.626Z,101960.78
2022-10-18T02:00:10.561Z,101961.66
2022-10-18T02:03:22.690Z,101957.88
2022-10-18T02:06:38.509Z,101959.22
2022-10-18T02:09:59.885Z,101952.78
2022-10-18T02:13:16.683Z,101950.41
2022-10-18T02:16:24.747Z,101954.94
2022-10-18T02:19:43.388Z,101958.13
2022-10-18T02:22:56.454Z,101946.66
2022-10-18T02:26:18.287Z,101951.41
2022-10-18T02:29:37.358Z,101961.91
2022-10-18T02:33:01.426Z,101958.00
2022-10-18T02:36:35.497Z,101953.31
2022-10-18T02:39:55.496Z,101958.56
2022-10-18T02:43:10.420Z,101953.72
2022-10-18T02:46:21.232Z,101960.38
2022-10-18T02:49:44.513Z,101957.34
2022-10-18T02:53:14.427Z,101964.66
2022-10-18T02:56:37.436Z,101954.41
2022-10-18T02:59:59.421Z,101949.22
2022-10-18T03:03:22.418Z,101960.53
2022-10-18T03:06:45.270Z,101955.53
2022-10-18T03:10:04.698Z,101961.75
2022-10-18T03:13:21.077Z,101973.25
2022-10-18T03:16:38.478Z,101964.94
2022-10-18T03:20:01.484Z,101974.50
2022-10-18T03:23:31.296Z,101978.94
2022-10-18T03:26:55.306Z,101983.19
2022-10-18T03:30:17.320Z,101978.44
2022-10-18T03:33:39.430Z,101972.47
2022-10-18T03:37:04.779Z,101979.44
2022-10-18T03:40:24.427Z,101974.94
2022-10-18T03:43:40.520Z,101970.75
2022-10-18T03:47:00.292Z,101969.53
2022-10-18T03:50:28.418Z,101972.91
2022-10-18T03:53:51.297Z,101971.53
2022-10-18T03:57:06.372Z,101977.13
2022-10-18T04:00:29.283Z,101969.84
2022-10-18T04:03:49.364Z,101971.97
2022-10-18T04:07:09.463Z,101960.59
2022-10-18T04:10:30.323Z,101965.41
2022-10-18T04:13:49.186Z,101957.56
2022-10-18T04:16:56.449Z,101963.22
2022-10-18T04:20:05.947Z,101966.66
2022-10-18T04:23:27.900Z,101962.63
2022-10-18T04:26:47.914Z,101958.53
2022-10-18T04:30:10.190Z,101958.63
2022-10-18T04:33:29.323Z,101953.94
2022-10-18T04:36:40.223Z,101964.34
2022-10-18T04:40:03.201Z,101954.72
2022-10-18T04:43:30.276Z,101956.84
2022-10-18T04:46:52.117Z,101955.28
2022-10-18T04:50:15.247Z,101946.63
2022-10-18T04:53:36.104Z,101946.47
2022-10-18T04:57:06.152Z,101941.41
2022-10-18T05:00:29.068Z,101938.22
2022-10-18T05:03:50.932Z,101934.44
2022-10-18T05:07:14.100Z,101944.09
2022-10-18T05:10:36.226Z,101943.28
2022-10-18T05:13:56.082Z,101947.75
2022-10-18T05:16:59.701Z,101945.88
2022-10-18T05:20:02.669Z,101946.63
2022-10-18T05:23:12.780Z,101941.50
2022-10-18T05:26:35.157Z,101937.41
2022-10-18T05:30:01.260Z,101946.59
2022-10-18T05:33:32.428Z,101940.94
2022-10-18T05:36:51.333Z,101939.66
2022-10-18T05:40:14.034Z,101945.28
2022-10-18T05:43:28.711Z,101953.66
2022-10-18T05:46:45.746Z,101942.22
2022-10-18T05:50:17.259Z,101939.28
2022-10-18T05:53:38.011Z,101946.16
2022-10-18T05:56:54.260Z,101939.53
2022-10-18T06:00:15.085Z,101952.66
2022-10-18T06:08:49.071Z,101951.72
2022-10-18T06:12:17.356Z,101952.59
2022-10-18T06:15:33.594Z,101953.41
2022-10-18T06:19:02.570Z,101954.53
2022-10-18T06:22:09.447Z,101954.53
2022-10-18T06:25:34.482Z,101956.03
2022-10-18T06:28:41.626Z,101969.03
2022-10-18T06:31:55.286Z,101971.75
2022-10-18T06:34:58.288Z,101976.59
2022-10-18T06:38:58.048Z,101969.19
2022-10-18T06:42:22.621Z,101965.00
2022-10-18T06:45:50.906Z,101969.09
2022-10-18T06:49:22.167Z,101959.53
2022-10-18T06:53:16.542Z,101974.72
2022-10-18T06:57:07.343Z,101971.00
2022-10-18T07:00:19.376Z,101966.47
2022-10-18T07:03:25.040Z,101976.38
2022-10-18T07:06:54.264Z,101979.78
2022-10-18T07:10:01.278Z,101977.94
2022-10-18T07:13:32.052Z,101968.75
2022-10-18T07:17:01.900Z,101962.88
2022-10-18T07:20:13.025Z,101961.41
2022-10-18T07:23:29.059Z,101958.63
2022-10-18T07:27:13.320Z,101959.25
2022-10-18T07:30:41.606Z,101950.97
2022-10-18T07:35:13.191Z,101959.75
2022-10-18T07:38:53.435Z,101952.09
2022-10-18T07:42:28.622Z,101943.00
2022-10-18T07:51:10.246Z,101938.06
2022-10-18T07:55:09.608Z,101932.41
2022-10-18T08:03:27.910Z,101925.38
2022-10-18T08:06:41.101Z,101928.41
2022-10-18T08:10:20.674Z,101922.44
2022-10-18T08:13:47.045Z,101916.75
2022-10-18T08:17:07.020Z,101919.19
2022-10-18T08:21:34.703Z,101917.31
2022-10-18T08:30:59.078Z,101906.91
2022-10-18T08:34:25.101Z,101890.44
2022-10-18T08:37:44.058Z,101892.22
2022-10-18T08:41:38.354Z,101875.66
2022-10-18T08:46:04.139Z,101876.81
2022-10-18T08:49:51.043Z,101872.72
2022-10-18T08:59:24.738Z,101860.41
2022-10-18T09:03:00.303Z,101852.59
2022-10-18T09:16:04.955Z,101839.91
2022-10-18T09:19:36.174Z,101844.09
2022-10-18T09:22:51.440Z,101836.50
2022-10-18T09:32:40.091Z,101831.28
2022-10-18T09:36:26.027Z,101816.22
2022-10-18T09:39:57.775Z,101816.34
2022-10-18T09:48:26.368Z,101809.13
2022-10-18T09:51:58.819Z,101809.72
2022-10-18T09:55:27.421Z,101799.81
2022-10-18T09:58:51.528Z,101797.88
2022-10-18T10:02:52.394Z,101787.06
2022-10-18T10:06:18.949Z,101789.63
2022-10-18T10:10:16.766Z,101778.75
2022-10-18T10:13:42.132Z,101774.28
2022-10-18T10:16:51.739Z,101774.50
2022-10-18T10:20:05.722Z,101766.97
2022-10-18T10:23:39.315Z,101756.34
2022-10-18T10:27:25.087Z,101751.31
2022-10-18T10:30:45.162Z,101752.66
2022-10-18T10:34:44.622Z,101738.63
2022-10-18T10:37:58.471Z,101732.75
2022-10-18T10:41:24.517Z,101731.06
2022-10-18T10:44:40.086Z,101727.19
2022-10-18T10:49:21.692Z,101722.06
2022-10-18T10:52:57.464Z,101715.47
2022-10-18T10:56:50.680Z,101708.88
2022-10-18T11:00:57.470Z,101707.66
2022-10-18T11:04:35.385Z,101704.03
2022-10-18T11:08:23.942Z,101698.56
2022-10-18T11:12:02.105Z,101695.19
2022-10-18T11:20:25.896Z,101681.66
2022-10-18T11:23:44.890Z,101678.25
2022-10-18T11:27:09.908Z,101669.69
2022-10-18T11:34:55.834Z,101661.13
2022-10-18T11:38:53.858Z,101658.09
2022-10-18T11:42:17.929Z,101648.22
2022-10-18T11:46:35.475Z,101640.44
2022-10-18T11:49:53.482Z,101637.50
2022-10-18T11:53:37.722Z,101635.72
2022-10-18T11:57:26.143Z,101627.25
2022-10-18T12:00:55.158Z,101612.63
2022-10-18T12:05:05.320Z,101611.81
2022-10-18T12:08:45.456Z,101606.28
2022-10-18T12:12:47.578Z,101598.81
2022-10-18T12:16:50.515Z,101590.84
2022-10-18T12:21:15.111Z,101581.50
2022-10-18T12:24:35.475Z,101576.78
2022-10-18T12:32:34.904Z,101568.72
2022-10-18T12:36:07.220Z,101556.34
2022-10-18T12:39:37.521Z,101550.63
2022-10-18T12:43:00.313Z,101549.84
2022-10-18T12:46:30.097Z,101548.47
2022-10-18T12:49:52.886Z,101541.34
2022-10-18T12:58:13.686Z,101528.75
2022-10-18T13:01:35.874Z,101521.19
2022-10-18T13:04:40.833Z,101514.22
2022-10-18T13:07:46.701Z,101511.91
2022-10-18T13:11:12.888Z,101510.00
2022-10-18T13:14:25.991Z,101502.41
2022-10-18T13:17:48.469Z,101501.75
2022-10-18T13:21:17.827Z,101500.28
2022-10-18T13:24:26.333Z,101498.50
2022-10-18T13:27:49.103Z,101495.78
2022-10-18T13:31:05.250Z,101491.41
2022-10-18T13:34:31.372Z,101496.06
2022-10-18T13:37:37.797Z,101498.06
2022-10-18T13:40:43.132Z,101501.94
2022-10-18T13:43:55.966Z,101500.94
2022-10-18T13:47:05.818Z,101497.06
2022-10-18T13:50:33.073Z,101492.88
2022-10-18T13:53:59.754Z,101490.63
2022-10-18T13:57:26.280Z,101479.78
2022-10-18T14:01:06.909Z,101481.75
2022-10-18T14:04:28.369Z,101477.66
2022-10-18T14:08:12.694Z,101476.22
2022-10-18T14:11:38.153Z,101475.41
2022-10-18T14:14:58.580Z,101466.53
2022-10-18T14:18:44.929Z,101465.19
2022-10-18T14:22:30.530Z,101457.78
2022-10-18T14:25:45.068Z,101455.38
2022-10-18T14:29:20.440Z,101450.72
2022-10-18T14:32:29.989Z,101452.66
2022-10-18T14:35:35.758Z,101450.41
2022-10-18T14:39:13.871Z,101452.81
2022-10-18T14:42:35.906Z,101448.31
2022-10-18T14:45:58.858Z,101438.41
2022-10-18T14:49:19.962Z,101436.63
2022-10-18T14:52:35.099Z,101432.75
2022-10-18T14:56:06.794Z,101420.44
2022-10-18T14:59:27.087Z,101419.13
2022-10-18T15:02:36.467Z,101415.81
2022-10-18T15:06:08.608Z,101407.75
2022-10-18T15:09:33.690Z,101417.88
2022-10-18T15:13:17.568Z,101411.88
2022-10-18T15:16:19.317Z,101406.47
2022-10-18T15:19:59.372Z,101410.94
2022-10-18T15:23:32.131Z,101403.47
2022-10-18T15:26:53.241Z,101397.84
2022-10-18T15:30:21.331Z,101398.03
2022-10-18T15:33:34.821Z,101400.44
2022-10-18T15:36:39.219Z,101396.13
2022-10-18T15:39:42.099Z,101403.16
2022-10-18T15:42:47.124Z,101392.59
2022-10-18T15:45:53.779Z,101396.53
2022-10-18T15:49:18.824Z,101401.09
2022-10-18T15:52:21.657Z,101392.63
2022-10-18T15:55:31.591Z,101394.09
2022-10-18T15:58:44.319Z,101392.31
2022-10-18T16:01:47.670Z,101379.47
2022-10-18T16:05:08.758Z,101377.72
2022-10-18T16:08:28.973Z,101378.13
2022-10-18T16:11:35.156Z,101387.34
2022-10-18T16:14:39.183Z,101383.81
2022-10-18T16:17:51.448Z,101379.91
2022-10-18T16:21:14.506Z,101387.91
2022-10-18T16:24:36.502Z,101394.56
2022-10-18T16:27:59.566Z,101391.53
2022-10-18T16:31:24.239Z,101387.69
2022-10-18T16:34:43.453Z,101395.28
2022-10-18T16:38:06.615Z,101400.63
2022-10-18T16:41:29.458Z,101400.97
2022-10-18T16:44:51.469Z,101400.97
2022-10-18T16:48:12.466Z,101405.72
2022-10-18T16:51:28.557Z,101396.59
2022-10-18T16:54:42.980Z,101405.03
2022-10-18T16:57:46.665Z,101402.69
2022-10-18T17:00:52.096Z,101395.91
2022-10-18T17:04:07.492Z,101405.53
2022-10-18T17:07:31.459Z,101399.19
2022-10-18T17:10:53.114Z,101393.38
2022-10-18T17:14:03.122Z,101408.53
2022-10-18T17:17:05.837Z,101406.81
2022-10-18T17:20:21.327Z,101404.53
2022-10-18T17:23:27.923Z,101419.19
2022-10-18T17:26:44.470Z,101416.13
2022-10-18T17:30:06.588Z,101404.78
2022-10-18T17:33:30.379Z,101405.53
2022-10-18T17:36:50.518Z,101402.09
2022-10-18T17:39:53.560Z,101390.81
2022-10-18T17:42:57.806Z,101393.91
2022-10-18T17:46:19.703Z,101393.78
2022-10-18T17:49:40.097Z,101397.22
2022-10-18T17:52:49.074Z,101388.56
2022-10-18T17:56:02.409Z,101391.38
2022-10-18T17:59:12.729Z,101389.66
2022-10-18T18:02:47.359Z,101393.06
2022-10-18T18:06:29.301Z,101393.69
2022-10-18T18:09:49.343Z,101394.09
2022-10-18T18:13:05.340Z,101400.63
2022-10-18T18:16:34.416Z,101391.47
2022-10-18T18:23:08.327Z,101388.03
2022-10-18T18:26:42.278Z,101385.13
2022-10-18T18:30:08.137Z,101378.94
2022-10-18T18:33:33.113Z,101391.03
2022-10-18T18:36:55.060Z,101389.09
2022-10-18T18:40:16.083Z,101390.22
2022-10-18T18:43:38.011Z,101380.22
2022-10-18T18:46:48.054Z,101362.59
2022-10-18T18:50:11.194Z,101361.06
2022-10-18T18:53:46.213Z,101364.69
2022-10-18T18:57:05.356Z,101364.69
2022-10-18T19:00:28.194Z,101367.13
2022-10-18T19:03:51.175Z,101360.59
2022-10-18T19:07:14.219Z,101360.06
2022-10-18T19:10:37.093Z,101360.91
2022-10-18T19:13:48.863Z,101367.75
2022-10-18T19:17:14.208Z,101357.16
2022-10-18T19:20:43.054Z,101359.38
2022-10-18T19:24:00.171Z,101350.69
2022-10-18T19:27:20.189Z,101351.22
2022-10-18T19:30:49.948Z,101354.81
2022-10-18T19:34:07.270Z,101344.53
2022-10-18T19:37:27.217Z,101347.78
2022-10-18T19:40:51.594Z,101351.34
2022-10-18T19:44:13.048Z,101359.53
2022-10-18T19:47:33.128Z,101357.38
2022-10-18T19:50:54.130Z,101354.97
2022-10-18T19:54:14.065Z,101360.72
2022-10-18T19:57:35.634Z,101347.72
2022-10-18T20:00:56.336Z,101351.81
2022-10-18T20:03:59.645Z,101348.00
2022-10-18T20:07:03.240Z,101343.13
2022-10-18T20:10:23.660Z,101336.34
2022-10-18T20:13:46.021Z,101333.38
2022-10-18T20:16:59.800Z,101326.56
2022-10-18T20:20:17.018Z,101326.84
2022-10-18T20:23:49.801Z,101325.75
2022-10-18T20:27:10.826Z,101326.88
2022-10-18T20:30:32.769Z,101329.91
2022-10-18T20:33:55.915Z,101333.47
2022-10-18T20:37:16.204Z,101328.31
2022-10-18T20:40:29.773Z,101318.56
2022-10-18T20:43:53.878Z,101323.16
2022-10-18T20:47:23.956Z,101322.91
2022-10-18T20:50:32.047Z,101316.91
2022-10-18T20:53:35.959Z,101322.34
2022-10-18T20:56:45.478Z,101315.03
2022-10-18T21:00:07.847Z,101310.94
2022-10-18T21:03:30.870Z,101307.19
2022-10-18T21:06:54.446Z,101308.78
2022-10-18T21:10:16.838Z,101304.19
2022-10-18T21:13:52.831Z,101302.59
2022-10-18T21:17:21.792Z,101303.44
2022-10-18T21:21:01.897Z,101311.56
2022-10-18T21:24:26.942Z,101311.56
2022-10-18T21:27:46.870Z,101312.41
2022-10-18T21:31:20.042Z,101302.09
2022-10-18T21:34:40.912Z,101301.03
2022-10-18T21:37:56.836Z,101301.56
2022-10-18T21:41:19.936Z,101279.59
2022-10-18T21:44:43.793Z,101277.69
2022-10-18T21:48:06.735Z,101274.41
2022-10-18T21:51:20.834Z,101264.63
2022-10-18T21:54:43.815Z,101258.41
2022-10-18T21:58:10.906Z,101250.25
2022-10-18T22:01:32.489Z,101264.63
2022-10-18T22:04:53.832Z,101254.56
2022-10-18T22:08:14.726Z,101257.56
2022-10-18T22:11:34.824Z,101261.38
2022-10-18T22:14:50.879Z,101248.66
2022-10-18T22:18:17.953Z,101246.19
2022-10-18T22:21:20.988Z,101244.31
2022-10-18T22:24:24.767Z,101240.78
2022-10-18T22:27:45.304Z,101249.97
2022-10-18T22:31:06.397Z,101244.84
2022-10-18T22:34:33.321Z,101251.03
2022-10-18T22:37:53.497Z,101246.47
2022-10-18T22:41:15.480Z,101235.91
2022-10-18T22:44:31.745Z,101244.31
2022-10-18T22:47:51.605Z,101237.28
2022-10-18T22:51:13.707Z,101243.22
2022-10-18T22:54:36.561Z,101241.63
2022-10-18T22:58:04.581Z,101244.09
2022-10-18T23:01:26.442Z,101250.81
2022-10-18T23:04:42.734Z,101237.25
2022-10-18T23:08:02.585Z,101240.25
2022-10-18T23:11:36.630Z,101223.97
2022-10-18T23:14:57.354Z,101218.22
2022-10-18T23:18:19.398Z,101219.56
2022-10-18T23:21:41.449Z,101227.16
2022-10-18T23:25:02.639Z,101227.97
2022-10-18T23:28:25.623Z,101223.34
2022-10-18T23:31:49.990Z,101223.63
2022-10-18T23:35:11.378Z,101216.66
2022-10-18T23:38:33.399Z,101216.63
2022-10-18T23:41:55.431Z,101219.34
2022-10-18T23:45:16.468Z,101213.13
2022-10-18T23:48:39.469Z,101212.31
2022-10-18T23:51:56.716Z,101211.78
2022-10-18T23:55:18.461Z,101201.50
2022-10-18T23:58:40.558Z,101206.66
